Time;durP1;ratioP1;P1;durP2;ratioP2;P2;SDS_P1;SDS_P2;PMS_P1;PMS_P2;Temp;Humidity;BMP_temperature;BMP_pressure;BME280_temperature;BME280_humidity;BME280_pressure;Samples;Min_cycle;Max_cycle;Signal;HPM_P1;HPM_P2
2021/03/04 00:02:01;;;;;;;51.77;31.33;;;5.00;99.90;;;;;;5046392;28;20205;-80
2021/03/04 00:04:27;;;;;;;51.50;30.03;;;5.00;99.90;;;;;;5045151;28;20213;-78
2021/03/04 00:06:53;;;;;;;52.40;30.53;;;5.00;99.90;;;;;;5062235;28;20391;-79
2021/03/04 00:09:20;;;;;;;53.53;31.57;;;5.00;99.90;;;;;;5063979;28;20198;-78
2021/03/04 00:11:46;;;;;;;45.43;29.60;;;4.90;99.90;;;;;;5054520;28;20228;-79
2021/03/04 00:14:12;;;;;;;48.63;31.17;;;4.90;99.90;;;;;;5046533;28;20208;-79
2021/03/04 00:16:40;;;;;;;50.93;31.10;;;4.90;99.90;;;;;;5044317;28;20844;-79
2021/03/04 00:19:06;;;;;;;49.97;29.60;;;4.90;99.90;;;;;;5044989;28;20202;-78
2021/03/04 00:21:32;;;;;;;44.87;28.63;;;5.00;99.90;;;;;;5056599;28;20217;-78
2021/03/04 00:23:59;;;;;;;48.00;30.57;;;5.00;99.90;;;;;;5065361;28;20598;-80
2021/03/04 00:26:25;;;;;;;51.53;31.33;;;4.90;99.90;;;;;;5065365;28;20221;-79
2021/03/04 00:28:51;;;;;;;47.07;29.20;;;5.00;99.90;;;;;;5064604;28;20208;-80
2021/03/04 00:31:17;;;;;;;54.27;30.77;;;5.00;99.90;;;;;;5064909;28;20209;-81
2021/03/04 00:33:45;;;;;;;51.13;30.33;;;5.00;99.90;;;;;;5058377;28;20205;-80
2021/03/04 00:36:11;;;;;;;55.33;29.43;;;5.00;99.90;;;;;;5045091;28;20198;-79
2021/03/04 00:38:38;;;;;;;48.50;29.17;;;5.00;99.90;;;;;;5044173;28;20210;-80
2021/03/04 00:41:04;;;;;;;48.53;28.27;;;5.00;99.90;;;;;;5046275;28;20205;-79
2021/03/04 00:43:30;;;;;;;46.73;29.23;;;4.90;99.90;;;;;;5051443;28;20910;-80
2021/03/04 00:45:56;;;;;;;45.50;28.23;;;4.90;99.90;;;;;;5049985;28;20648;-79
2021/03/04 00:48:23;;;;;;;46.17;28.80;;;4.90;99.90;;;;;;5045772;28;20201;-78
2021/03/04 00:50:50;;;;;;;45.50;29.20;;;4.90;99.90;;;;;;5044413;28;20244;-80
2021/03/04 00:53:16;;;;;;;47.53;30.23;;;4.90;99.90;;;;;;5045240;28;20194;-81
2021/03/04 00:55:42;;;;;;;47.33;30.00;;;4.90;99.90;;;;;;5044141;28;20210;-81
2021/03/04 00:58:09;;;;;;;51.53;30.80;;;4.90;99.90;;;;;;5044597;28;20202;-79
2021/03/04 01:00:35;;;;;;;47.73;30.43;;;4.90;99.90;;;;;;5059036;28;20274;-79
2021/03/04 01:03:02;;;;;;;50.77;30.40;;;4.90;99.90;;;;;;5065363;28;20299;-80
2021/03/04 01:05:28;;;;;;;52.63;31.13;;;4.90;99.90;;;;;;5062898;28;20283;-80
2021/03/04 01:07:55;;;;;;;49.67;29.57;;;4.90;99.90;;;;;;5064111;28;20225;-79
2021/03/04 01:10:26;;;;;;;53.00;30.20;;;4.90;99.90;;;;;;5064189;28;20197;-79
2021/03/04 01:12:52;;;;;;;49.83;30.70;;;4.90;99.90;;;;;;5060751;28;20245;-79
2021/03/04 01:15:21;;;;;;;54.30;29.83;;;5.00;99.90;;;;;;5044409;28;20209;-79
2021/03/04 01:17:48;;;;;;;61.20;32.23;;;4.90;99.90;;;;;;5044651;28;20214;-77
2021/03/04 01:20:16;;;;;;;59.13;32.23;;;4.90;99.90;;;;;;5054682;28;20217;-79
2021/03/04 01:22:43;;;;;;;58.73;32.33;;;4.90;99.90;;;;;;5064192;28;20197;-80
2021/03/04 01:25:11;;;;;;;58.80;30.57;;;4.90;99.90;;;;;;5063616;28;20250;-77
2021/03/04 01:27:38;;;;;;;54.67;29.87;;;4.90;99.90;;;;;;5061774;28;20217;-77
2021/03/04 01:30:06;;;;;;;55.57;31.00;;;4.90;99.90;;;;;;5063109;28;20213;-78
2021/03/04 01:32:33;;;;;;;53.73;31.03;;;4.90;99.90;;;;;;5063063;28;20205;-78
2021/03/04 01:34:59;;;;;;;55.13;30.20;;;4.90;99.90;;;;;;5063450;28;20236;-80
2021/03/04 01:37:26;;;;;;;54.20;30.77;;;4.90;99.90;;;;;;5048469;28;20202;-78
2021/03/04 01:39:52;;;;;;;59.03;31.60;;;4.80;99.90;;;;;;5043472;28;20209;-79
2021/03/04 01:42:19;;;;;;;60.87;31.73;;;4.80;99.90;;;;;;5043632;28;20202;-78
2021/03/04 01:44:46;;;;;;;60.63;33.43;;;4.80;99.90;;;;;;5044162;28;20201;-79
2021/03/04 01:47:12;;;;;;;57.37;31.60;;;4.90;99.90;;;;;;5043961;28;20419;-79
2021/03/04 01:49:39;;;;;;;55.60;31.33;;;4.90;99.90;;;;;;5042549;28;20189;-79
2021/03/04 01:52:07;;;;;;;58.03;31.13;;;4.80;99.90;;;;;;5045102;28;20202;-78
2021/03/04 01:54:33;;;;;;;63.43;33.10;;;4.90;99.90;;;;;;5045843;28;20202;-78
2021/03/04 01:56:59;;;;;;;56.47;31.50;;;4.80;99.90;;;;;;5056672;28;20231;-79
2021/03/04 01:59:27;;;;;;;56.93;30.63;;;4.90;99.90;;;;;;5067856;28;20202;-79
2021/03/04 02:01:54;;;;;;;56.63;31.23;;;4.80;99.90;;;;;;5066356;28;20212;-78
2021/03/04 02:04:20;;;;;;;53.13;29.97;;;4.80;99.90;;;;;;5066076;28;20198;-77
2021/03/04 02:06:50;;;;;;;59.83;32.87;;;4.80;99.90;;;;;;5064304;28;20236;-76
2021/03/04 02:09:21;;;;;;;59.47;32.70;;;4.80;99.90;;;;;;5064625;28;20204;-78
2021/03/04 02:11:53;;;;;;;58.20;31.43;;;4.80;99.90;;;;;;5047834;28;20210;-79
2021/03/04 02:14:25;;;;;;;56.63;32.33;;;4.90;99.90;;;;;;5042931;28;20202;-79
2021/03/04 02:16:56;;;;;;;59.87;31.77;;;4.80;99.90;;;;;;5043050;28;20315;-78
2021/03/04 02:19:36;;;;;;;66.40;33.60;;;4.80;99.90;;;;;;5048862;28;20213;-79
2021/03/04 02:22:15;;;;;;;61.67;34.43;;;4.90;99.90;;;;;;5063402;28;20201;-79
2021/03/04 02:24:52;;;;;;;64.60;34.73;;;4.80;99.90;;;;;;5044422;28;20209;-79
2021/03/04 02:27:24;;;;;;;66.87;33.10;;;4.90;99.90;;;;;;5043042;28;20229;-78
2021/03/04 02:29:57;;;;;;;67.87;34.50;;;4.90;99.90;;;;;;5042469;28;20221;-79
2021/03/04 02:32:26;;;;;;;63.07;33.00;;;5.00;99.90;;;;;;5052740;28;20197;-79
2021/03/04 02:34:58;;;;;;;71.37;36.13;;;4.90;99.90;;;;;;5063025;28;20254;-78
2021/03/04 02:37:28;;;;;;;60.13;33.77;;;4.90;99.90;;;;;;5062983;28;20201;-78
2021/03/04 02:39:57;;;;;;;70.17;34.60;;;4.90;99.90;;;;;;5057455;28;20202;-78
2021/03/04 02:42:26;;;;;;;71.90;36.67;;;4.90;99.90;;;;;;5042216;28;20201;-78
2021/03/04 02:44:55;;;;;;;64.40;33.77;;;5.00;99.90;;;;;;5042386;28;20271;-78
2021/03/04 02:47:23;;;;;;;66.43;35.50;;;4.90;99.90;;;;;;5042606;28;20225;-77
2021/03/04 02:49:49;;;;;;;64.30;33.93;;;4.90;99.90;;;;;;5042122;28;20260;-77
2021/03/04 02:52:18;;;;;;;64.00;34.67;;;5.00;99.90;;;;;;5042807;28;20218;-79
2021/03/04 02:54:45;;;;;;;65.77;33.67;;;5.00;99.90;;;;;;5041938;28;20609;-78
2021/03/04 02:57:13;;;;;;;69.50;36.20;;;4.90;99.90;;;;;;5043740;28;20206;-78
2021/03/04 02:59:43;;;;;;;64.10;33.50;;;4.90;99.90;;;;;;5042384;28;20206;-82
2021/03/04 03:02:11;;;;;;;67.07;33.63;;;4.80;99.90;;;;;;5042313;28;20213;-79
2021/03/04 03:04:39;;;;;;;70.10;34.73;;;4.80;99.90;;;;;;5041372;28;20210;-80
2021/03/04 03:07:07;;;;;;;72.73;35.73;;;4.90;99.90;;;;;;5041488;28;20340;-80
2021/03/04 03:09:34;;;;;;;72.80;34.67;;;4.90;99.90;;;;;;5040457;28;20202;-82
2021/03/04 03:12:01;;;;;;;73.77;36.27;;;4.90;99.90;;;;;;5039674;28;20572;-81
2021/03/04 03:14:29;;;;;;;75.97;38.57;;;4.90;99.90;;;;;;5021068;28;20206;-79
2021/03/04 03:16:58;;;;;;;75.53;35.50;;;4.80;99.90;;;;;;5046438;28;20299;-81
2021/03/04 03:19:24;;;;;;;70.13;34.83;;;4.90;99.90;;;;;;5061257;28;20198;-80
2021/03/04 03:21:51;;;;;;;72.60;33.03;;;4.90;99.90;;;;;;5061808;28;20262;-80
2021/03/04 03:24:17;;;;;;;68.00;34.73;;;4.90;99.90;;;;;;5056831;28;20209;-80
2021/03/04 03:26:44;;;;;;;68.77;35.07;;;4.90;99.90;;;;;;5039602;28;20221;-79
2021/03/04 03:29:10;;;;;;;68.67;34.50;;;4.80;99.90;;;;;;5041365;28;20213;-80
2021/03/04 03:34:04;;;;;;;73.13;35.47;;;4.90;99.90;;;;;;5067573;22;20240;-80
2021/03/04 03:36:31;;;;;;;75.67;37.93;;;4.90;99.90;;;;;;5064894;28;20204;-79
2021/03/04 03:38:59;;;;;;;78.67;37.67;;;5.00;99.90;;;;;;5050907;28;20244;-80
2021/03/04 03:41:26;;;;;;;90.90;39.50;;;5.00;99.90;;;;;;5045324;28;20217;-81
2021/03/04 03:43:54;;;;;;;81.43;38.43;;;5.00;99.90;;;;;;5045514;28;20689;-81
2021/03/04 03:46:21;;;;;;;77.73;35.87;;;5.00;99.90;;;;;;5048621;28;20291;-80
2021/03/04 03:48:48;;;;;;;80.97;36.47;;;5.00;99.90;;;;;;5044869;28;20622;-77
2021/03/04 03:51:17;;;;;;;75.87;35.87;;;5.00;99.90;;;;;;5056993;28;20219;-80
2021/03/04 03:53:44;;;;;;;73.00;35.13;;;5.00;99.90;;;;;;5064946;28;20247;-80
2021/03/04 03:56:12;;;;;;;77.67;35.37;;;5.00;99.90;;;;;;5064691;28;20209;-80
2021/03/04 03:58:39;;;;;;;77.57;36.23;;;5.00;99.90;;;;;;5062527;28;20754;-78
2021/03/04 04:01:07;;;;;;;76.03;34.07;;;5.00;99.90;;;;;;5044626;28;20202;-79
2021/03/04 04:03:34;;;;;;;80.10;36.67;;;5.00;99.90;;;;;;5044113;28;20213;-81
2021/03/04 04:06:03;;;;;;;65.60;32.17;;;4.90;99.90;;;;;;5045228;28;20205;-80
2021/03/04 04:08:30;;;;;;;68.37;33.33;;;5.00;99.90;;;;;;5044483;28;20589;-80
2021/03/04 04:10:57;;;;;;;64.40;32.87;;;5.00;99.90;;;;;;5045675;28;20213;-79
2021/03/04 04:13:23;;;;;;;60.43;31.67;;;4.90;99.90;;;;;;5044889;28;20198;-79
2021/03/04 04:15:50;;;;;;;60.27;30.20;;;4.90;99.90;;;;;;5044077;28;20288;-80
2021/03/04 04:18:17;;;;;;;64.43;33.00;;;4.90;99.90;;;;;;5059012;28;20217;-80
2021/03/04 04:20:44;;;;;;;68.67;34.13;;;4.90;99.90;;;;;;5063657;28;20213;-78
2021/03/04 04:23:10;;;;;;;64.53;32.13;;;4.90;99.90;;;;;;5047679;28;20209;-80
2021/03/04 04:25:47;;;;;;;67.63;33.00;;;5.00;99.90;;;;;;5043751;28;20202;-79
2021/03/04 04:28:13;;;;;;;75.13;34.80;;;4.90;99.90;;;;;;5045155;28;20852;-80
2021/03/04 04:30:39;;;;;;;65.83;34.60;;;4.90;99.90;;;;;;5043593;28;20206;-80
2021/03/04 04:33:06;;;;;;;72.63;36.33;;;4.90;99.90;;;;;;5044621;28;20241;-79
2021/03/04 04:35:32;;;;;;;65.27;33.10;;;4.90;99.90;;;;;;5044657;28;20233;-79
2021/03/04 04:37:58;;;;;;;62.70;32.33;;;5.00;99.90;;;;;;5043752;28;20621;-79
2021/03/04 04:40:25;;;;;;;63.53;31.90;;;5.00;99.90;;;;;;5044400;28;20193;-79
2021/03/04 04:42:52;;;;;;;68.60;32.70;;;5.00;99.90;;;;;;5044474;28;20213;-80
2021/03/04 04:45:18;;;;;;;70.50;31.57;;;5.00;99.90;;;;;;5054065;28;20205;-80
2021/03/04 04:47:44;;;;;;;62.07;31.17;;;5.00;99.90;;;;;;5063841;28;20243;-80
2021/03/04 04:50:11;;;;;;;61.57;32.40;;;5.00;99.90;;;;;;5053979;28;20222;-79
2021/03/04 04:52:38;;;;;;;62.07;31.03;;;4.90;99.90;;;;;;5043148;28;20256;-80
2021/03/04 04:55:05;;;;;;;55.00;29.67;;;4.90;99.90;;;;;;5044324;28;20514;-80
2021/03/04 04:57:31;;;;;;;71.27;34.13;;;4.90;99.90;;;;;;5043107;28;20206;-80
2021/03/04 04:59:59;;;;;;;68.50;33.20;;;4.90;99.90;;;;;;5042942;28;20900;-80
2021/03/04 05:02:25;;;;;;;64.43;32.13;;;4.90;99.90;;;;;;5044407;28;20592;-79
2021/03/04 05:04:52;;;;;;;67.50;31.87;;;5.00;99.90;;;;;;5043684;28;20202;-80
2021/03/04 05:07:18;;;;;;;65.43;32.10;;;5.00;99.90;;;;;;5044348;28;20810;-77
2021/03/04 05:09:44;;;;;;;70.90;33.10;;;5.00;99.90;;;;;;5043791;28;20210;-79
2021/03/04 05:12:11;;;;;;;69.37;35.13;;;5.00;99.90;;;;;;5044068;28;20538;-78
2021/03/04 05:14:37;;;;;;;65.53;32.13;;;5.00;99.90;;;;;;5061153;28;20259;-79
2021/03/04 05:17:05;;;;;;;64.80;31.43;;;5.00;99.90;;;;;;5064035;28;20229;-78
2021/03/04 05:19:31;;;;;;;64.90;32.10;;;5.00;99.90;;;;;;5061698;28;20197;-78
2021/03/04 05:21:57;;;;;;;67.80;32.73;;;5.00;99.90;;;;;;5061582;28;20209;-78
2021/03/04 05:24:24;;;;;;;65.07;32.70;;;5.00;99.90;;;;;;5043125;28;20213;-79
2021/03/04 05:26:50;;;;;;;63.30;30.90;;;5.00;99.90;;;;;;5041405;28;20218;-79
2021/03/04 05:29:17;;;;;;;60.87;30.47;;;5.00;99.90;;;;;;5042201;28;20738;-78
2021/03/04 05:31:44;;;;;;;63.33;29.57;;;5.00;99.90;;;;;;5041164;28;20206;-78
2021/03/04 05:34:11;;;;;;;61.30;29.67;;;5.10;99.90;;;;;;5042217;28;20624;-79
2021/03/04 05:36:37;;;;;;;61.93;30.90;;;5.00;99.90;;;;;;5044425;28;20201;-79
2021/03/04 05:39:04;;;;;;;65.07;32.70;;;5.00;99.90;;;;;;5044358;28;20202;-78
2021/03/04 05:41:31;;;;;;;61.77;30.63;;;5.00;99.90;;;;;;5043693;28;20514;-78
2021/03/04 05:43:57;;;;;;;59.97;30.10;;;5.00;99.90;;;;;;5045406;28;20210;-78
2021/03/04 05:46:23;;;;;;;59.67;29.17;;;5.00;99.90;;;;;;5043493;28;20197;-79
2021/03/04 05:48:51;;;;;;;61.10;29.70;;;5.00;99.90;;;;;;5043754;28;20197;-78
2021/03/04 05:51:26;;;;;;;58.73;31.20;;;5.00;99.90;;;;;;5044569;28;20202;-78
2021/03/04 05:53:57;;;;;;;61.37;31.00;;;5.00;99.90;;;;;;5043766;28;20197;-78
2021/03/04 05:56:24;;;;;;;58.53;31.37;;;5.00;99.90;;;;;;5044234;28;20206;-80
2021/03/04 05:58:51;;;;;;;64.30;31.93;;;4.90;99.90;;;;;;5043396;28;20500;-79
2021/03/04 06:01:18;;;;;;;58.43;29.90;;;5.00;99.90;;;;;;5043551;28;20386;-77
2021/03/04 06:03:45;;;;;;;58.97;29.63;;;5.00;99.90;;;;;;5043752;28;20228;-79
2021/03/04 06:06:12;;;;;;;53.67;28.27;;;5.00;99.90;;;;;;5044001;28;20202;-78
2021/03/04 06:08:39;;;;;;;58.27;30.60;;;5.00;99.90;;;;;;5043554;28;20217;-78
2021/03/04 06:11:06;;;;;;;55.77;27.30;;;5.00;99.90;;;;;;5044631;28;20213;-78
2021/03/04 06:13:33;;;;;;;49.57;25.70;;;5.00;99.90;;;;;;5044169;28;20202;-79
2021/03/04 06:16:00;;;;;;;45.10;23.00;;;5.00;99.90;;;;;;5063362;28;20221;-80
2021/03/04 06:18:38;;;;;;;46.57;22.73;;;5.00;99.90;;;;;;5064184;28;20600;-79
2021/03/04 06:21:16;;;;;;;43.30;22.23;;;5.00;99.90;;;;;;5063343;28;20240;-79
2021/03/04 06:23:43;;;;;;;38.23;21.83;;;5.00;99.90;;;;;;5064424;28;20197;-78
2021/03/04 06:26:09;;;;;;;43.00;22.87;;;5.00;99.90;;;;;;5065036;28;20218;-77
2021/03/04 06:28:35;;;;;;;44.93;24.37;;;5.00;99.90;;;;;;5058530;28;20229;-79
2021/03/04 06:31:01;;;;;;;40.10;21.83;;;4.90;99.90;;;;;;5043758;28;20214;-79
2021/03/04 06:33:35;;;;;;;37.30;20.87;;;4.90;99.90;;;;;;5042450;28;20250;-78
2021/03/04 06:36:12;;;;;;;37.13;20.03;;;5.00;99.90;;;;;;5043037;28;20329;-79
2021/03/04 06:38:38;;;;;;;41.33;20.10;;;4.90;99.90;;;;;;5046903;28;20221;-77
2021/03/04 06:41:18;;;;;;;37.43;18.00;;;4.90;99.90;;;;;;5047039;28;20201;-78
2021/03/04 06:43:44;;;;;;;30.37;16.93;;;5.00;99.90;;;;;;5043667;28;20278;-80
2021/03/04 06:46:11;;;;;;;33.83;16.93;;;5.00;99.90;;;;;;5060872;28;20204;-78
2021/03/04 06:48:37;;;;;;;32.13;16.80;;;4.90;99.90;;;;;;5062442;28;20224;-78
2021/03/04 06:51:06;;;;;;;31.43;17.80;;;5.00;99.90;;;;;;5058137;28;20213;-77
2021/03/04 06:53:33;;;;;;;31.30;17.67;;;5.00;99.90;;;;;;5042296;28;20269;-79
2021/03/04 06:56:04;;;;;;;31.13;15.80;;;4.90;99.90;;;;;;5042875;28;20206;-78
2021/03/04 06:58:33;;;;;;;32.17;16.27;;;4.90;99.90;;;;;;5041584;28;20190;-77
2021/03/04 07:01:05;;;;;;;30.87;16.33;;;4.90;99.90;;;;;;5042143;28;20565;-77
2021/03/04 07:03:39;;;;;;;30.87;17.20;;;4.80;99.90;;;;;;5041455;28;20735;-78
2021/03/04 07:06:07;;;;;;;35.27;17.00;;;4.80;99.90;;;;;;5042224;28;20210;-77
2021/03/04 07:08:36;;;;;;;32.97;18.20;;;4.90;99.90;;;;;;5043475;28;20229;-78
2021/03/04 07:11:04;;;;;;;33.53;17.73;;;4.90;99.90;;;;;;5047369;28;20214;-77
2021/03/04 07:13:33;;;;;;;36.53;17.80;;;5.00;99.90;;;;;;5046885;28;20240;-79
2021/03/04 07:16:05;;;;;;;32.80;17.93;;;5.00;99.90;;;;;;5047277;28;20209;-78
2021/03/04 07:18:37;;;;;;;33.60;18.43;;;4.90;99.90;;;;;;5045807;28;20218;-77
2021/03/04 07:21:05;;;;;;;35.17;18.37;;;4.90;99.90;;;;;;5057257;28;20217;-80
2021/03/04 07:23:32;;;;;;;35.73;19.07;;;4.90;99.90;;;;;;5066913;28;20599;-78
2021/03/04 07:25:59;;;;;;;35.77;18.23;;;4.90;99.90;;;;;;5050816;28;20205;-77
2021/03/04 07:28:28;;;;;;;36.60;18.63;;;4.90;99.90;;;;;;5046804;28;20236;-79
2021/03/04 07:30:56;;;;;;;38.00;18.90;;;4.90;99.90;;;;;;5046389;28;20500;-79
2021/03/04 07:33:24;;;;;;;41.13;19.80;;;5.00;99.90;;;;;;5046132;28;20564;-80
2021/03/04 07:35:50;;;;;;;41.63;20.30;;;4.90;99.90;;;;;;5055489;28;20208;-77
2021/03/04 07:38:27;;;;;;;39.00;21.50;;;4.90;99.90;;;;;;5066887;28;20223;-78
2021/03/04 07:41:05;;;;;;;40.30;19.60;;;4.90;99.90;;;;;;5066951;28;20189;-79
2021/03/04 07:43:44;;;;;;;41.67;19.20;;;5.00;99.90;;;;;;5066960;28;20327;-79
2021/03/04 07:46:11;;;;;;;37.23;19.37;;;4.90;99.90;;;;;;5066333;28;20201;-81
2021/03/04 07:48:48;;;;;;;38.00;20.17;;;5.00;99.90;;;;;;5047230;28;20831;-81
2021/03/04 07:51:17;;;;;;;37.70;20.13;;;5.00;99.90;;;;;;5028471;28;20562;-79
2021/03/04 07:53:46;;;;;;;37.03;19.83;;;5.00;99.90;;;;;;5046701;28;20205;-80
2021/03/04 07:56:22;;;;;;;33.63;17.37;;;5.00;99.90;;;;;;5066212;28;20201;-78
2021/03/04 07:58:49;;;;;;;34.47;18.83;;;5.00;99.90;;;;;;5058616;28;20267;-78
2021/03/04 08:01:16;;;;;;;32.60;18.60;;;5.00;99.90;;;;;;5046447;28;20198;-79
2021/03/04 08:03:47;;;;;;;31.77;16.80;;;4.90;99.90;;;;;;5044664;28;20208;-79
2021/03/04 08:06:13;;;;;;;27.83;16.23;;;5.00;99.90;;;;;;5046025;28;20506;-81
2021/03/04 08:08:40;;;;;;;34.77;16.63;;;4.90;99.90;;;;;;5045604;28;20238;-79
2021/03/04 08:11:07;;;;;;;31.27;17.60;;;5.00;99.90;;;;;;5046343;28;20925;-79
2021/03/04 08:13:35;;;;;;;33.47;17.90;;;5.00;99.90;;;;;;5045255;28;20606;-80
2021/03/04 08:16:02;;;;;;;27.70;14.50;;;5.00;99.90;;;;;;5061579;28;20205;-79
2021/03/04 08:18:29;;;;;;;26.50;14.27;;;5.00;99.90;;;;;;5065308;28;20221;-79
2021/03/04 08:21:03;;;;;;;27.63;14.10;;;5.00;99.90;;;;;;5046615;28;20210;-80
2021/03/04 08:23:29;;;;;;;30.37;14.80;;;5.00;99.90;;;;;;5046281;28;20194;-78
2021/03/04 08:25:56;;;;;;;24.07;14.67;;;4.90;99.90;;;;;;5059134;28;20608;-81
2021/03/04 08:28:23;;;;;;;23.57;13.37;;;5.00;99.90;;;;;;5067425;28;20225;-82
2021/03/04 08:30:50;;;;;;;21.27;13.20;;;4.90;99.90;;;;;;5066868;28;20205;-83
2021/03/04 08:33:16;;;;;;;24.23;13.13;;;5.00;99.90;;;;;;5062527;28;20630;-79
2021/03/04 08:35:46;;;;;;;21.53;12.90;;;4.90;99.90;;;;;;5051585;28;20208;-78
2021/03/04 08:38:15;;;;;;;19.23;12.33;;;4.90;99.90;;;;;;5064771;28;20198;-76
2021/03/04 08:40:42;;;;;;;19.63;12.77;;;5.00;99.90;;;;;;5066448;28;20193;-80
2021/03/04 08:43:10;;;;;;;19.30;11.20;;;5.10;99.90;;;;;;5066901;28;20620;-80
2021/03/04 08:45:37;;;;;;;22.63;13.10;;;5.10;99.90;;;;;;5066341;28;20543;-77
2021/03/04 08:48:08;;;;;;;22.73;13.43;;;5.10;99.90;;;;;;5066814;28;20222;-79
2021/03/04 08:50:40;;;;;;;19.20;11.63;;;5.20;99.90;;;;;;5066877;28;20229;-78
2021/03/04 08:53:15;;;;;;;16.57;10.80;;;5.20;99.90;;;;;;5066023;28;20213;-78
2021/03/04 08:55:46;;;;;;;18.17;11.50;;;5.30;99.90;;;;;;5064217;28;20216;-78
2021/03/04 08:58:13;;;;;;;18.20;10.23;;;5.30;99.90;;;;;;5066746;28;20204;-80
2021/03/04 09:00:39;;;;;;;15.70;10.10;;;5.40;99.90;;;;;;5066344;28;20202;-80
2021/03/04 09:03:10;;;;;;;17.47;10.53;;;5.40;99.90;;;;;;5049356;28;20733;-82
2021/03/04 09:05:37;;;;;;;12.90;9.43;;;5.50;99.90;;;;;;5045088;28;20206;-82
2021/03/04 09:08:08;;;;;;;11.97;9.90;;;5.50;99.90;;;;;;5056172;28;20217;-79
2021/03/04 09:10:46;;;;;;;10.03;8.40;;;5.50;99.90;;;;;;5064069;28;20220;-79
2021/03/04 09:13:19;;;;;;;12.93;9.27;;;5.50;99.90;;;;;;5065842;28;20201;-79
2021/03/04 09:15:52;;;;;;;10.43;8.33;;;5.50;99.90;;;;;;5041675;28;20628;-79
2021/03/04 09:18:20;;;;;;;12.10;8.90;;;5.50;99.90;;;;;;5044565;28;20222;-81
2021/03/04 09:20:48;;;;;;;10.73;8.53;;;5.50;99.90;;;;;;5044024;28;20201;-79
2021/03/04 09:23:14;;;;;;;10.07;8.33;;;5.50;99.90;;;;;;5046074;28;20206;-81
2021/03/04 09:25:42;;;;;;;9.60;7.27;;;5.50;99.90;;;;;;5043763;28;20202;-80
2021/03/04 09:28:12;;;;;;;8.60;7.57;;;5.50;99.90;;;;;;5056231;28;20237;-79
2021/03/04 09:30:39;;;;;;;10.37;7.43;;;5.40;99.90;;;;;;5063812;28;20196;-80
2021/03/04 09:33:16;;;;;;;9.17;8.00;;;5.40;99.90;;;;;;5046021;28;20249;-79
2021/03/04 09:35:53;;;;;;;9.77;8.10;;;5.50;99.90;;;;;;5047093;28;20276;-82
2021/03/04 09:38:19;;;;;;;8.27;7.13;;;5.50;99.90;;;;;;5045983;28;20205;-79
2021/03/04 09:40:47;;;;;;;10.07;8.23;;;5.50;99.90;;;;;;5043143;28;20210;-80
2021/03/04 09:43:15;;;;;;;11.50;7.37;;;5.60;99.90;;;;;;5042952;28;20202;-81
2021/03/04 09:45:45;;;;;;;11.40;8.60;;;5.60;99.90;;;;;;5043918;28;20197;-79
2021/03/04 09:48:11;;;;;;;13.13;9.00;;;5.60;99.90;;;;;;5044507;28;20226;-83
2021/03/04 09:50:37;;;;;;;10.80;8.27;;;5.60;99.90;;;;;;5046261;28;20206;-82
2021/03/04 09:53:06;;;;;;;9.93;8.30;;;5.50;99.90;;;;;;5046129;28;20611;-81
2021/03/04 09:55:39;;;;;;;10.97;7.37;;;5.60;99.90;;;;;;5055375;28;20205;-81
2021/03/04 09:58:11;;;;;;;14.33;9.10;;;5.50;99.90;;;;;;5065935;28;20840;-81
2021/03/04 10:00:37;;;;;;;10.70;7.87;;;5.60;99.90;;;;;;5047976;28;20232;-80
2021/03/04 10:03:08;;;;;;;10.10;7.10;;;5.60;99.90;;;;;;5046510;28;20193;-80
2021/03/04 10:05:35;;;;;;;7.90;7.07;;;5.70;99.90;;;;;;5065126;28;20948;-82
2021/03/04 10:08:09;;;;;;;10.13;6.63;;;5.80;99.90;;;;;;5064152;28;20949;-81
2021/03/04 10:10:36;;;;;;;7.17;6.10;;;5.90;99.90;;;;;;5064192;28;20197;-83
2021/03/04 10:13:03;;;;;;;8.63;6.17;;;5.90;99.90;;;;;;5064700;28;20220;-81
2021/03/04 10:15:32;;;;;;;8.83;6.13;;;6.00;99.90;;;;;;5063230;28;20205;-79
2021/03/04 10:18:03;;;;;;;6.73;5.53;;;6.10;99.90;;;;;;5063092;28;20307;-80
2021/03/04 10:20:29;;;;;;;7.47;5.50;;;6.20;99.90;;;;;;5046714;28;20202;-81
2021/03/04 10:22:57;;;;;;;8.27;5.90;;;6.30;99.90;;;;;;5042829;28;20210;-79
2021/03/04 10:25:23;;;;;;;6.67;5.03;;;6.30;99.90;;;;;;5043974;28;20217;-79
2021/03/04 10:27:51;;;;;;;5.47;4.90;;;6.30;99.90;;;;;;5056409;28;20320;-82
2021/03/04 10:30:18;;;;;;;5.73;4.07;;;6.30;99.90;;;;;;5064314;28;20193;-80
2021/03/04 10:32:46;;;;;;;6.77;5.20;;;6.40;99.90;;;;;;5046291;28;20299;-81
2021/03/04 10:35:14;;;;;;;5.40;4.20;;;6.40;99.90;;;;;;5043761;28;20228;-81
2021/03/04 10:37:42;;;;;;;5.87;4.40;;;6.40;99.90;;;;;;5043283;28;20209;-79
2021/03/04 10:40:10;;;;;;;6.20;4.73;;;6.40;99.90;;;;;;5044283;28;20202;-81
2021/03/04 10:42:37;;;;;;;5.57;5.03;;;6.40;99.90;;;;;;5044599;28;20210;-82
2021/03/04 10:45:05;;;;;;;6.67;4.97;;;6.50;99.90;;;;;;5056071;28;20209;-80
2021/03/04 10:47:32;;;;;;;7.73;6.30;;;6.40;99.90;;;;;;5068180;28;20315;-81
2021/03/04 10:49:59;;;;;;;9.07;6.27;;;6.40;99.90;;;;;;5068620;28;20285;-81
2021/03/04 10:52:26;;;;;;;6.87;4.40;;;6.50;99.90;;;;;;5049922;28;20209;-82
2021/03/04 10:54:53;;;;;;;7.23;5.20;;;6.50;99.90;;;;;;5049388;28;20213;-81
2021/03/04 10:57:19;;;;;;;5.20;4.57;;;6.60;99.90;;;;;;5047714;28;20198;-79
2021/03/04 10:59:46;;;;;;;6.67;3.93;;;6.60;99.90;;;;;;5048332;28;20424;-79
2021/03/04 11:02:12;;;;;;;7.77;3.90;;;6.60;99.90;;;;;;5048802;28;20228;-80
2021/03/04 11:04:38;;;;;;;6.90;3.57;;;6.70;99.90;;;;;;5047113;28;20214;-79
2021/03/04 11:07:06;;;;;;;6.17;3.17;;;6.70;99.90;;;;;;5048332;28;20703;-81
2021/03/04 11:09:32;;;;;;;7.83;3.00;;;6.70;99.90;;;;;;5045358;28;20522;-78
2021/03/04 11:11:58;;;;;;;8.77;3.23;;;6.60;99.90;;;;;;5058312;28;20263;-78
2021/03/04 11:14:25;;;;;;;3.63;2.67;;;6.60;99.90;;;;;;5064437;28;20618;-78
2021/03/04 11:16:51;;;;;;;5.80;2.30;;;6.60;99.90;;;;;;5059203;28;20565;-78
2021/03/04 11:19:17;;;;;;;5.37;2.63;;;6.60;99.90;;;;;;5064379;28;20209;-77
2021/03/04 11:21:45;;;;;;;2.73;2.27;;;6.70;99.90;;;;;;5063716;28;20205;-78
2021/03/04 11:24:13;;;;;;;4.73;2.23;;;6.60;99.90;;;;;;5065645;28;20508;-78
2021/03/04 11:26:40;;;;;;;5.10;2.20;;;6.70;99.90;;;;;;5058301;28;20213;-79
2021/03/04 11:29:07;;;;;;;2.93;2.33;;;6.70;99.90;;;;;;5054014;28;20228;-79
2021/03/04 11:31:33;;;;;;;11.30;2.17;;;6.60;99.90;;;;;;5063536;28;20219;-78
2021/03/04 11:34:00;;;;;;;4.97;2.57;;;6.60;99.90;;;;;;5046264;28;20246;-80
2021/03/04 11:36:26;;;;;;;3.63;1.70;;;6.70;99.90;;;;;;5046257;28;20202;-80
2021/03/04 11:38:52;;;;;;;4.10;1.87;;;6.70;99.90;;;;;;5045202;28;20622;-80
2021/03/04 11:41:20;;;;;;;5.30;2.00;;;6.70;99.90;;;;;;5045546;28;20210;-79
2021/03/04 11:43:46;;;;;;;6.30;2.23;;;6.70;99.90;;;;;;5046127;28;20803;-79
2021/03/04 11:46:13;;;;;;;3.47;1.40;;;6.70;99.90;;;;;;5049922;28;20224;-80
2021/03/04 11:48:40;;;;;;;2.30;1.60;;;6.70;99.90;;;;;;5046462;28;20230;-78
2021/03/04 11:51:07;;;;;;;2.93;1.70;;;6.80;99.90;;;;;;5046205;28;20206;-80
2021/03/04 11:53:34;;;;;;;3.77;1.40;;;6.80;99.90;;;;;;5043049;28;20217;-80
2021/03/04 11:56:00;;;;;;;3.37;1.40;;;6.90;99.90;;;;;;5045439;28;20642;-79
2021/03/04 11:58:28;;;;;;;3.60;1.77;;;6.90;99.90;;;;;;5047321;28;20205;-79
2021/03/04 12:00:54;;;;;;;4.80;1.73;;;6.90;99.90;;;;;;5065054;28;20236;-79
2021/03/04 12:03:21;;;;;;;9.80;3.37;;;7.00;99.90;;;;;;5064460;28;20248;-81
2021/03/04 12:05:48;;;;;;;4.30;2.67;;;7.00;99.90;;;;;;5065253;28;20235;-79
2021/03/04 12:08:15;;;;;;;4.33;2.47;;;7.00;99.90;;;;;;5065401;28;20715;-79
2021/03/04 12:10:41;;;;;;;7.93;2.83;;;7.00;99.90;;;;;;5065264;28;20573;-81
2021/03/04 12:13:08;;;;;;;2.70;1.47;;;7.10;99.90;;;;;;5053626;28;20217;-79
2021/03/04 12:15:36;;;;;;;5.80;1.83;;;7.00;99.90;;;;;;5044573;28;20206;-78
2021/03/04 12:18:02;;;;;;;6.40;1.43;;;7.10;99.90;;;;;;5043589;28;20221;-80
2021/03/04 12:20:29;;;;;;;5.17;1.77;;;7.10;99.90;;;;;;5046096;28;20201;-79
2021/03/04 12:22:56;;;;;;;5.03;2.93;;;7.10;99.90;;;;;;5064561;28;20763;-79
2021/03/04 12:25:22;;;;;;;5.73;2.13;;;7.10;99.90;;;;;;5065969;28;20189;-79
2021/03/04 12:27:49;;;;;;;5.53;2.03;;;6.90;99.90;;;;;;5065770;28;20667;-78
2021/03/04 12:30:16;;;;;;;5.83;1.90;;;6.90;99.90;;;;;;5056343;28;20595;-78
2021/03/04 12:32:44;;;;;;;4.87;2.00;;;6.90;99.90;;;;;;5044980;28;20201;-79
2021/03/04 12:35:11;;;;;;;6.03;2.17;;;6.90;99.90;;;;;;5045822;28;20202;-78
2021/03/04 12:37:38;;;;;;;5.77;2.13;;;7.00;99.90;;;;;;5045194;28;20610;-80
2021/03/04 12:40:05;;;;;;;4.93;1.90;;;7.10;99.90;;;;;;5045047;28;20190;-77
2021/03/04 12:42:32;;;;;;;5.47;2.00;;;7.20;99.90;;;;;;5059038;28;20212;-79
2021/03/04 12:44:58;;;;;;;4.97;2.23;;;7.40;99.90;;;;;;5063846;28;20201;-77
2021/03/04 12:47:24;;;;;;;4.43;2.07;;;7.40;99.90;;;;;;5064723;28;20248;-77
2021/03/04 12:49:52;;;;;;;4.93;1.83;;;7.50;99.90;;;;;;5063290;28;20209;-77